STN weather

London Stansted Airport
London, England, United Kingdom

Public forecast

Using degrees Celsius for public forecast. Weather courtesy of forecast.io.

Current aviation weather report (METAR) for London Stansted Airport

Retrieved 2020/04/03 19:50 UTC (28 minutes ago):

EGSS 031950Z AUTO 21004KT 9999 NCD 09/02 Q1019

Aviation forecast (TAF) for London Stansted Airport

Retrieved 2020/04/03 18:00 UTC (2 hours ago):

TAF EGSS 031703Z 0318/0418 24006KT 9999 SCT045 TEMPO 0400/0408 8000 PROB30 0403/0407 3000 MIFG BR BKN003